Terminal Aerodrome Forecast
Issued by NWS

Home | Current Version | Previous Version | Text Only | Print | Product List | Glossary On
Versions: 1 2 3 4 5 6 7 8 9 10 11 12 13 14 15 16 17 18 19 20 21 22 23 24 25 26 27 28 29 30 31 32 33 34 35 36
000
FTAK31 PAFA 220717 AAA
TAFAQT
TAF AMD
PAQT 220717Z 2207/2306 27010KT P6SM -RA SCT020 OVC050
      TEMPO 2207/2211 5SM -RA BR BKN020
     FM221100 27009KT 6SM -RA BR OVC015
     FM221500 27009KT 4SM -RA BR OVC007
     FM221800 30007KT P6SM -RA OVC007=

USA.gov is the U.S. government's official web portal to all federal, state and local government web resources and services.